sensor_id;sensor_type;location;lat;lon;timestamp;P1;durP1;ratioP1;P2;durP2;ratioP2
1380;SDS011;684;48.342;10.096;2023-02-17T00:01:16;20.80;;;13.40;;
1380;SDS011;684;48.342;10.096;2023-02-17T00:03:45;22.10;;;13.70;;
1380;SDS011;684;48.342;10.096;2023-02-17T00:06:14;20.40;;;13.13;;
1380;SDS011;684;48.342;10.096;2023-02-17T00:08:42;21.20;;;12.53;;
1380;SDS011;684;48.342;10.096;2023-02-17T00:11:10;24.17;;;14.00;;
1380;SDS011;684;48.342;10.096;2023-02-17T00:13:37;20.23;;;13.50;;
1380;SDS011;684;48.342;10.096;2023-02-17T00:16:06;21.10;;;12.83;;
1380;SDS011;684;48.342;10.096;2023-02-17T00:18:33;21.17;;;12.20;;
1380;SDS011;684;48.342;10.096;2023-02-17T00:21:00;21.60;;;12.50;;
1380;SDS011;684;48.342;10.096;2023-02-17T00:23:36;20.13;;;12.13;;
1380;SDS011;684;48.342;10.096;2023-02-17T00:26:03;17.97;;;11.10;;
1380;SDS011;684;48.342;10.096;2023-02-17T00:28:30;24.67;;;12.97;;
1380;SDS011;684;48.342;10.096;2023-02-17T00:30:57;19.87;;;12.40;;
1380;SDS011;684;48.342;10.096;2023-02-17T00:33:24;21.10;;;12.60;;
1380;SDS011;684;48.342;10.096;2023-02-17T00:35:50;22.63;;;14.00;;
1380;SDS011;684;48.342;10.096;2023-02-17T00:38:17;19.13;;;11.30;;
1380;SDS011;684;48.342;10.096;2023-02-17T00:40:45;18.93;;;11.73;;
1380;SDS011;684;48.342;10.096;2023-02-17T00:43:12;16.20;;;10.30;;
1380;SDS011;684;48.342;10.096;2023-02-17T00:45:39;17.07;;;10.33;;
1380;SDS011;684;48.342;10.096;2023-02-17T00:48:05;21.47;;;12.37;;
1380;SDS011;684;48.342;10.096;2023-02-17T00:50:32;20.33;;;12.50;;
1380;SDS011;684;48.342;10.096;2023-02-17T00:52:59;19.03;;;11.90;;
1380;SDS011;684;48.342;10.096;2023-02-17T00:55:26;20.10;;;11.50;;
1380;SDS011;684;48.342;10.096;2023-02-17T00:57:54;18.17;;;10.60;;
1380;SDS011;684;48.342;10.096;2023-02-17T01:00:21;19.33;;;11.80;;
1380;SDS011;684;48.342;10.096;2023-02-17T01:02:48;18.47;;;10.70;;
1380;SDS011;684;48.342;10.096;2023-02-17T01:05:14;20.10;;;12.33;;
1380;SDS011;684;48.342;10.096;2023-02-17T01:07:41;21.53;;;11.80;;
1380;SDS011;684;48.342;10.096;2023-02-17T01:10:08;18.20;;;11.20;;
1380;SDS011;684;48.342;10.096;2023-02-17T01:12:35;19.30;;;11.23;;
1380;SDS011;684;48.342;10.096;2023-02-17T01:15:04;17.27;;;10.50;;
1380;SDS011;684;48.342;10.096;2023-02-17T01:17:32;19.60;;;11.10;;
1380;SDS011;684;48.342;10.096;2023-02-17T01:19:59;19.33;;;12.10;;
1380;SDS011;684;48.342;10.096;2023-02-17T01:22:25;22.70;;;12.33;;
1380;SDS011;684;48.342;10.096;2023-02-17T01:24:52;19.07;;;11.63;;
1380;SDS011;684;48.342;10.096;2023-02-17T01:27:19;17.37;;;10.77;;
1380;SDS011;684;48.342;10.096;2023-02-17T01:29:46;17.40;;;10.80;;
1380;SDS011;684;48.342;10.096;2023-02-17T01:32:14;21.70;;;13.13;;
1380;SDS011;684;48.342;10.096;2023-02-17T01:34:40;21.67;;;12.00;;
1380;SDS011;684;48.342;10.096;2023-02-17T01:37:07;19.33;;;11.47;;
1380;SDS011;684;48.342;10.096;2023-02-17T01:39:34;26.20;;;13.13;;
1380;SDS011;684;48.342;10.096;2023-02-17T01:42:01;20.20;;;11.73;;
1380;SDS011;684;48.342;10.096;2023-02-17T01:44:30;19.30;;;11.57;;
1380;SDS011;684;48.342;10.096;2023-02-17T01:46:57;18.20;;;11.60;;
1380;SDS011;684;48.342;10.096;2023-02-17T01:49:30;18.23;;;11.83;;
1380;SDS011;684;48.342;10.096;2023-02-17T01:52:03;18.70;;;11.50;;
1380;SDS011;684;48.342;10.096;2023-02-17T01:54:34;19.10;;;11.30;;
1380;SDS011;684;48.342;10.096;2023-02-17T01:57:05;17.43;;;11.00;;
1380;SDS011;684;48.342;10.096;2023-02-17T01:59:31;18.73;;;10.70;;
1380;SDS011;684;48.342;10.096;2023-02-17T02:01:59;18.30;;;12.03;;
1380;SDS011;684;48.342;10.096;2023-02-17T02:04:31;18.73;;;11.13;;
1380;SDS011;684;48.342;10.096;2023-02-17T02:07:01;17.80;;;10.90;;
1380;SDS011;684;48.342;10.096;2023-02-17T02:09:31;24.67;;;13.63;;
1380;SDS011;684;48.342;10.096;2023-02-17T02:12:01;16.50;;;10.30;;
1380;SDS011;684;48.342;10.096;2023-02-17T02:14:39;20.90;;;12.60;;
1380;SDS011;684;48.342;10.096;2023-02-17T02:17:07;16.53;;;10.17;;
1380;SDS011;684;48.342;10.096;2023-02-17T02:19:54;14.60;;;10.30;;
1380;SDS011;684;48.342;10.096;2023-02-17T02:22:39;16.00;;;10.20;;
1380;SDS011;684;48.342;10.096;2023-02-17T02:25:28;17.30;;;10.37;;
1380;SDS011;684;48.342;10.096;2023-02-17T02:28:12;19.00;;;10.47;;
1380;SDS011;684;48.342;10.096;2023-02-17T02:31:12;18.70;;;10.97;;
1380;SDS011;684;48.342;10.096;2023-02-17T02:33:52;19.73;;;11.50;;
1380;SDS011;684;48.342;10.096;2023-02-17T02:36:25;17.10;;;10.50;;
1380;SDS011;684;48.342;10.096;2023-02-17T02:38:56;21.07;;;11.77;;
1380;SDS011;684;48.342;10.096;2023-02-17T02:41:27;18.67;;;11.40;;
1380;SDS011;684;48.342;10.096;2023-02-17T02:43:58;18.27;;;10.47;;
1380;SDS011;684;48.342;10.096;2023-02-17T02:46:25;16.80;;;10.47;;
1380;SDS011;684;48.342;10.096;2023-02-17T02:48:53;17.37;;;10.80;;
1380;SDS011;684;48.342;10.096;2023-02-17T02:51:23;16.33;;;10.77;;
1380;SDS011;684;48.342;10.096;2023-02-17T02:54:04;20.73;;;11.37;;
1380;SDS011;684;48.342;10.096;2023-02-17T02:56:54;17.03;;;10.97;;
1380;SDS011;684;48.342;10.096;2023-02-17T02:59:32;19.60;;;11.47;;
1380;SDS011;684;48.342;10.096;2023-02-17T03:02:10;17.70;;;10.23;;
1380;SDS011;684;48.342;10.096;2023-02-17T03:04:46;17.17;;;9.97;;
1380;SDS011;684;48.342;10.096;2023-02-17T03:07:20;19.10;;;10.00;;
1380;SDS011;684;48.342;10.096;2023-02-17T03:09:52;14.97;;;9.00;;
1380;SDS011;684;48.342;10.096;2023-02-17T03:12:21;18.90;;;10.77;;
1380;SDS011;684;48.342;10.096;2023-02-17T03:14:50;15.73;;;9.63;;
1380;SDS011;684;48.342;10.096;2023-02-17T03:17:20;14.30;;;8.53;;
1380;SDS011;684;48.342;10.096;2023-02-17T03:19:48;16.40;;;9.27;;
1380;SDS011;684;48.342;10.096;2023-02-17T03:22:15;15.00;;;8.87;;
1380;SDS011;684;48.342;10.096;2023-02-17T03:24:46;13.80;;;9.47;;
1380;SDS011;684;48.342;10.096;2023-02-17T03:27:13;15.73;;;9.53;;
1380;SDS011;684;48.342;10.096;2023-02-17T03:29:39;15.10;;;8.03;;
1380;SDS011;684;48.342;10.096;2023-02-17T03:32:06;13.93;;;8.80;;
1380;SDS011;684;48.342;10.096;2023-02-17T03:34:33;17.13;;;9.10;;
1380;SDS011;684;48.342;10.096;2023-02-17T03:37:02;17.47;;;9.87;;
1380;SDS011;684;48.342;10.096;2023-02-17T03:39:29;15.50;;;8.73;;
1380;SDS011;684;48.342;10.096;2023-02-17T03:41:55;17.67;;;8.43;;
1380;SDS011;684;48.342;10.096;2023-02-17T03:44:22;13.77;;;7.83;;
1380;SDS011;684;48.342;10.096;2023-02-17T03:46:49;16.40;;;8.63;;
1380;SDS011;684;48.342;10.096;2023-02-17T03:49:16;15.03;;;8.57;;
1380;SDS011;684;48.342;10.096;2023-02-17T03:51:43;15.57;;;9.33;;
1380;SDS011;684;48.342;10.096;2023-02-17T03:54:11;16.07;;;9.67;;
1380;SDS011;684;48.342;10.096;2023-02-17T03:56:38;16.43;;;9.13;;
1380;SDS011;684;48.342;10.096;2023-02-17T03:59:05;16.67;;;8.90;;
1380;SDS011;684;48.342;10.096;2023-02-17T04:01:31;16.47;;;8.43;;
1380;SDS011;684;48.342;10.096;2023-02-17T04:03:58;15.63;;;8.87;;
1380;SDS011;684;48.342;10.096;2023-02-17T04:06:25;14.43;;;7.53;;
1380;SDS011;684;48.342;10.096;2023-02-17T04:08:52;20.10;;;10.23;;
1380;SDS011;684;48.342;10.096;2023-02-17T04:11:20;15.60;;;8.77;;
1380;SDS011;684;48.342;10.096;2023-02-17T04:13:46;14.80;;;8.07;;
1380;SDS011;684;48.342;10.096;2023-02-17T04:16:13;12.20;;;8.57;;
1380;SDS011;684;48.342;10.096;2023-02-17T04:18:40;15.20;;;8.33;;
1380;SDS011;684;48.342;10.096;2023-02-17T04:21:07;14.33;;;8.80;;
1380;SDS011;684;48.342;10.096;2023-02-17T04:23:34;15.80;;;8.73;;
1380;SDS011;684;48.342;10.096;2023-02-17T04:26:01;13.87;;;8.23;;
1380;SDS011;684;48.342;10.096;2023-02-17T04:28:29;11.93;;;7.53;;
1380;SDS011;684;48.342;10.096;2023-02-17T04:30:56;12.50;;;7.77;;
1380;SDS011;684;48.342;10.096;2023-02-17T04:33:24;14.77;;;8.93;;
1380;SDS011;684;48.342;10.096;2023-02-17T04:35:51;14.80;;;8.10;;
1380;SDS011;684;48.342;10.096;2023-02-17T04:38:23;16.90;;;8.40;;
1380;SDS011;684;48.342;10.096;2023-02-17T04:40:50;17.17;;;8.03;;
1380;SDS011;684;48.342;10.096;2023-02-17T04:43:18;11.90;;;7.67;;
1380;SDS011;684;48.342;10.096;2023-02-17T04:45:46;15.13;;;8.40;;
1380;SDS011;684;48.342;10.096;2023-02-17T04:48:13;12.27;;;7.43;;
1380;SDS011;684;48.342;10.096;2023-02-17T04:50:40;16.17;;;9.50;;
1380;SDS011;684;48.342;10.096;2023-02-17T04:53:06;12.83;;;8.17;;
1380;SDS011;684;48.342;10.096;2023-02-17T04:55:33;14.13;;;8.27;;
1380;SDS011;684;48.342;10.096;2023-02-17T04:58:00;13.73;;;8.07;;
1380;SDS011;684;48.342;10.096;2023-02-17T05:00:27;14.37;;;7.77;;
1380;SDS011;684;48.342;10.096;2023-02-17T05:02:55;16.00;;;9.50;;
1380;SDS011;684;48.342;10.096;2023-02-17T05:05:22;20.80;;;8.50;;
1380;SDS011;684;48.342;10.096;2023-02-17T05:07:49;14.60;;;7.20;;
1380;SDS011;684;48.342;10.096;2023-02-17T05:10:16;12.43;;;7.10;;
1380;SDS011;684;48.342;10.096;2023-02-17T05:12:43;17.00;;;8.60;;
1380;SDS011;684;48.342;10.096;2023-02-17T05:15:10;15.57;;;7.10;;
1380;SDS011;684;48.342;10.096;2023-02-17T05:17:38;15.83;;;8.50;;
1380;SDS011;684;48.342;10.096;2023-02-17T05:20:07;13.73;;;7.33;;
1380;SDS011;684;48.342;10.096;2023-02-17T05:22:34;19.17;;;8.77;;
1380;SDS011;684;48.342;10.096;2023-02-17T05:25:01;14.60;;;8.00;;
1380;SDS011;684;48.342;10.096;2023-02-17T05:27:28;12.33;;;7.90;;
1380;SDS011;684;48.342;10.096;2023-02-17T05:29:55;14.10;;;8.77;;
1380;SDS011;684;48.342;10.096;2023-02-17T05:32:21;12.23;;;8.20;;
1380;SDS011;684;48.342;10.096;2023-02-17T05:34:48;16.67;;;8.03;;
1380;SDS011;684;48.342;10.096;2023-02-17T05:37:16;13.83;;;8.70;;
1380;SDS011;684;48.342;10.096;2023-02-17T05:39:43;13.33;;;8.10;;
1380;SDS011;684;48.342;10.096;2023-02-17T05:42:10;13.60;;;7.83;;
1380;SDS011;684;48.342;10.096;2023-02-17T05:44:37;13.20;;;8.27;;
1380;SDS011;684;48.342;10.096;2023-02-17T05:47:04;15.73;;;8.33;;
1380;SDS011;684;48.342;10.096;2023-02-17T05:49:30;13.23;;;8.10;;
1380;SDS011;684;48.342;10.096;2023-02-17T05:51:57;13.30;;;8.20;;
1380;SDS011;684;48.342;10.096;2023-02-17T05:54:25;13.70;;;7.57;;
1380;SDS011;684;48.342;10.096;2023-02-17T05:56:52;12.90;;;6.70;;
1380;SDS011;684;48.342;10.096;2023-02-17T05:59:19;16.43;;;8.00;;
1380;SDS011;684;48.342;10.096;2023-02-17T06:01:46;15.47;;;7.87;;
1380;SDS011;684;48.342;10.096;2023-02-17T06:04:12;14.47;;;7.07;;
1380;SDS011;684;48.342;10.096;2023-02-17T06:06:39;15.20;;;8.20;;
1380;SDS011;684;48.342;10.096;2023-02-17T06:09:06;13.67;;;8.17;;
1380;SDS011;684;48.342;10.096;2023-02-17T06:11:34;20.03;;;8.70;;
1380;SDS011;684;48.342;10.096;2023-02-17T06:14:01;12.33;;;6.90;;
1380;SDS011;684;48.342;10.096;2023-02-17T06:16:27;17.03;;;6.90;;
1380;SDS011;684;48.342;10.096;2023-02-17T06:18:55;12.60;;;6.50;;
1380;SDS011;684;48.342;10.096;2023-02-17T06:21:24;12.40;;;6.77;;
1380;SDS011;684;48.342;10.096;2023-02-17T06:23:50;11.80;;;6.20;;
1380;SDS011;684;48.342;10.096;2023-02-17T06:26:17;11.83;;;6.80;;
1380;SDS011;684;48.342;10.096;2023-02-17T06:28:45;13.73;;;7.73;;
1380;SDS011;684;48.342;10.096;2023-02-17T06:31:12;13.23;;;7.13;;
1380;SDS011;684;48.342;10.096;2023-02-17T06:33:39;11.43;;;6.47;;
1380;SDS011;684;48.342;10.096;2023-02-17T06:36:06;10.97;;;5.93;;
1380;SDS011;684;48.342;10.096;2023-02-17T06:38:33;10.17;;;6.20;;
1380;SDS011;684;48.342;10.096;2023-02-17T06:41:00;10.80;;;6.60;;
1380;SDS011;684;48.342;10.096;2023-02-17T06:43:27;16.67;;;7.57;;
1380;SDS011;684;48.342;10.096;2023-02-17T06:45:55;11.40;;;5.70;;
1380;SDS011;684;48.342;10.096;2023-02-17T06:48:21;12.37;;;6.20;;
1380;SDS011;684;48.342;10.096;2023-02-17T06:50:48;10.30;;;6.63;;
1380;SDS011;684;48.342;10.096;2023-02-17T06:53:15;11.57;;;6.80;;
1380;SDS011;684;48.342;10.096;2023-02-17T06:55:42;11.70;;;6.00;;
1380;SDS011;684;48.342;10.096;2023-02-17T06:58:09;10.47;;;6.10;;
1380;SDS011;684;48.342;10.096;2023-02-17T07:00:36;10.53;;;5.77;;
1380;SDS011;684;48.342;10.096;2023-02-17T07:03:04;10.77;;;6.03;;
1380;SDS011;684;48.342;10.096;2023-02-17T07:05:32;11.00;;;5.57;;
1380;SDS011;684;48.342;10.096;2023-02-17T07:08:00;12.30;;;6.30;;
1380;SDS011;684;48.342;10.096;2023-02-17T07:10:27;9.67;;;6.50;;
1380;SDS011;684;48.342;10.096;2023-02-17T07:12:54;12.60;;;6.10;;
1380;SDS011;684;48.342;10.096;2023-02-17T07:15:21;13.97;;;6.10;;
1380;SDS011;684;48.342;10.096;2023-02-17T07:17:48;11.90;;;6.13;;
1380;SDS011;684;48.342;10.096;2023-02-17T07:20:16;14.90;;;6.50;;
1380;SDS011;684;48.342;10.096;2023-02-17T07:22:43;11.13;;;6.03;;
1380;SDS011;684;48.342;10.096;2023-02-17T07:25:09;13.33;;;5.57;;
1380;SDS011;684;48.342;10.096;2023-02-17T07:27:36;13.03;;;6.40;;
1380;SDS011;684;48.342;10.096;2023-02-17T07:30:03;10.87;;;6.63;;
1380;SDS011;684;48.342;10.096;2023-02-17T07:32:31;11.50;;;5.30;;
1380;SDS011;684;48.342;10.096;2023-02-17T07:34:58;10.50;;;5.60;;
1380;SDS011;684;48.342;10.096;2023-02-17T07:37:26;12.60;;;5.00;;
1380;SDS011;684;48.342;10.096;2023-02-17T07:39:52;15.77;;;6.10;;
1380;SDS011;684;48.342;10.096;2023-02-17T07:42:21;12.50;;;5.63;;
1380;SDS011;684;48.342;10.096;2023-02-17T07:44:47;11.07;;;5.00;;
1380;SDS011;684;48.342;10.096;2023-02-17T07:47:14;10.33;;;5.97;;
1380;SDS011;684;48.342;10.096;2023-02-17T07:49:41;11.70;;;5.70;;
1380;SDS011;684;48.342;10.096;2023-02-17T07:52:08;12.07;;;5.23;;
1380;SDS011;684;48.342;10.096;2023-02-17T07:54:36;8.50;;;4.83;;
1380;SDS011;684;48.342;10.096;2023-02-17T07:57:03;10.90;;;5.10;;
1380;SDS011;684;48.342;10.096;2023-02-17T07:59:29;12.47;;;6.67;;
1380;SDS011;684;48.342;10.096;2023-02-17T08:01:56;10.90;;;4.80;;
1380;SDS011;684;48.342;10.096;2023-02-17T08:04:23;12.87;;;5.33;;
1380;SDS011;684;48.342;10.096;2023-02-17T08:06:50;9.00;;;5.50;;
1380;SDS011;684;48.342;10.096;2023-02-17T08:09:16;13.40;;;5.97;;
1380;SDS011;684;48.342;10.096;2023-02-17T08:12:02;11.60;;;5.60;;
1380;SDS011;684;48.342;10.096;2023-02-17T08:14:43;9.63;;;5.30;;
1380;SDS011;684;48.342;10.096;2023-02-17T08:17:10;9.50;;;5.80;;
1380;SDS011;684;48.342;10.096;2023-02-17T08:19:36;10.60;;;5.43;;
1380;SDS011;684;48.342;10.096;2023-02-17T08:22:03;9.37;;;5.13;;
1380;SDS011;684;48.342;10.096;2023-02-17T08:24:30;7.90;;;4.60;;
1380;SDS011;684;48.342;10.096;2023-02-17T08:26:57;9.33;;;5.13;;
1380;SDS011;684;48.342;10.096;2023-02-17T08:29:25;10.80;;;5.20;;
1380;SDS011;684;48.342;10.096;2023-02-17T08:31:52;12.47;;;4.83;;
1380;SDS011;684;48.342;10.096;2023-02-17T08:34:19;8.87;;;4.77;;
1380;SDS011;684;48.342;10.096;2023-02-17T08:36:45;9.17;;;4.77;;
1380;SDS011;684;48.342;10.096;2023-02-17T08:39:13;11.63;;;4.67;;
1380;SDS011;684;48.342;10.096;2023-02-17T08:41:42;11.50;;;4.67;;
1380;SDS011;684;48.342;10.096;2023-02-17T08:44:10;8.60;;;4.17;;
1380;SDS011;684;48.342;10.096;2023-02-17T08:46:40;8.00;;;4.13;;
1380;SDS011;684;48.342;10.096;2023-02-17T08:49:08;7.27;;;3.47;;
1380;SDS011;684;48.342;10.096;2023-02-17T08:51:35;10.57;;;4.20;;
1380;SDS011;684;48.342;10.096;2023-02-17T08:54:03;7.67;;;4.17;;
1380;SDS011;684;48.342;10.096;2023-02-17T08:56:30;8.90;;;4.37;;
1380;SDS011;684;48.342;10.096;2023-02-17T08:58:58;8.80;;;3.87;;
1380;SDS011;684;48.342;10.096;2023-02-17T09:01:25;8.30;;;3.83;;
1380;SDS011;684;48.342;10.096;2023-02-17T09:03:55;10.00;;;4.73;;
1380;SDS011;684;48.342;10.096;2023-02-17T09:06:22;9.27;;;4.10;;
1380;SDS011;684;48.342;10.096;2023-02-17T09:08:56;8.80;;;3.90;;
1380;SDS011;684;48.342;10.096;2023-02-17T09:11:23;9.90;;;4.50;;
1380;SDS011;684;48.342;10.096;2023-02-17T09:13:50;7.27;;;3.90;;
1380;SDS011;684;48.342;10.096;2023-02-17T09:16:16;6.70;;;4.03;;
1380;SDS011;684;48.342;10.096;2023-02-17T09:18:44;7.33;;;4.10;;
1380;SDS011;684;48.342;10.096;2023-02-17T09:21:12;10.27;;;4.30;;
1380;SDS011;684;48.342;10.096;2023-02-17T09:23:39;7.73;;;4.93;;
1380;SDS011;684;48.342;10.096;2023-02-17T09:26:07;9.40;;;4.20;;
1380;SDS011;684;48.342;10.096;2023-02-17T09:28:35;10.90;;;4.27;;
1380;SDS011;684;48.342;10.096;2023-02-17T09:31:07;9.90;;;3.67;;
1380;SDS011;684;48.342;10.096;2023-02-17T09:33:34;8.17;;;4.30;;
1380;SDS011;684;48.342;10.096;2023-02-17T09:36:01;7.73;;;3.93;;
1380;SDS011;684;48.342;10.096;2023-02-17T09:38:30;7.77;;;4.57;;
1380;SDS011;684;48.342;10.096;2023-02-17T09:40:58;8.43;;;3.80;;
1380;SDS011;684;48.342;10.096;2023-02-17T09:43:31;6.40;;;4.07;;
1380;SDS011;684;48.342;10.096;2023-02-17T09:45:59;8.20;;;4.10;;
1380;SDS011;684;48.342;10.096;2023-02-17T09:48:31;11.53;;;3.97;;
1380;SDS011;684;48.342;10.096;2023-02-17T09:51:01;11.07;;;4.27;;
1380;SDS011;684;48.342;10.096;2023-02-17T09:53:34;10.20;;;4.10;;
1380;SDS011;684;48.342;10.096;2023-02-17T09:56:08;7.93;;;4.67;;
1380;SDS011;684;48.342;10.096;2023-02-17T09:58:39;9.80;;;3.90;;
1380;SDS011;684;48.342;10.096;2023-02-17T10:01:09;7.17;;;3.70;;
1380;SDS011;684;48.342;10.096;2023-02-17T10:03:43;11.03;;;4.57;;
1380;SDS011;684;48.342;10.096;2023-02-17T10:06:14;5.70;;;3.10;;
1380;SDS011;684;48.342;10.096;2023-02-17T10:08:46;7.87;;;3.67;;
1380;SDS011;684;48.342;10.096;2023-02-17T10:11:20;6.93;;;3.57;;
1380;SDS011;684;48.342;10.096;2023-02-17T10:13:52;5.73;;;3.17;;
1380;SDS011;684;48.342;10.096;2023-02-17T10:16:24;7.20;;;3.50;;
1380;SDS011;684;48.342;10.096;2023-02-17T10:18:58;7.77;;;3.37;;
1380;SDS011;684;48.342;10.096;2023-02-17T10:21:28;12.20;;;3.67;;
1380;SDS011;684;48.342;10.096;2023-02-17T10:24:02;6.57;;;3.23;;
1380;SDS011;684;48.342;10.096;2023-02-17T10:26:35;7.73;;;3.90;;
1380;SDS011;684;48.342;10.096;2023-02-17T10:29:18;8.13;;;3.60;;
1380;SDS011;684;48.342;10.096;2023-02-17T10:31:56;9.77;;;3.50;;
1380;SDS011;684;48.342;10.096;2023-02-17T10:34:36;9.40;;;4.17;;
1380;SDS011;684;48.342;10.096;2023-02-17T10:37:10;7.90;;;4.10;;
1380;SDS011;684;48.342;10.096;2023-02-17T10:39:44;8.47;;;3.27;;
1380;SDS011;684;48.342;10.096;2023-02-17T10:42:15;9.07;;;3.73;;
1380;SDS011;684;48.342;10.096;2023-02-17T10:44:45;7.13;;;3.27;;
1380;SDS011;684;48.342;10.096;2023-02-17T10:47:14;12.10;;;4.17;;
1380;SDS011;684;48.342;10.096;2023-02-17T10:49:43;6.70;;;3.80;;
1380;SDS011;684;48.342;10.096;2023-02-17T10:52:15;7.37;;;3.73;;
1380;SDS011;684;48.342;10.096;2023-02-17T10:54:47;9.30;;;3.67;;
1380;SDS011;684;48.342;10.096;2023-02-17T10:57:18;7.27;;;3.43;;
1380;SDS011;684;48.342;10.096;2023-02-17T10:59:46;18.00;;;4.40;;
1380;SDS011;684;48.342;10.096;2023-02-17T11:02:16;6.70;;;3.40;;
1380;SDS011;684;48.342;10.096;2023-02-17T11:04:45;7.43;;;3.17;;
1380;SDS011;684;48.342;10.096;2023-02-17T11:07:15;9.20;;;3.23;;
1380;SDS011;684;48.342;10.096;2023-02-17T11:09:45;8.90;;;3.17;;
1380;SDS011;684;48.342;10.096;2023-02-17T11:12:15;7.20;;;3.63;;
1380;SDS011;684;48.342;10.096;2023-02-17T11:14:47;8.00;;;3.50;;
1380;SDS011;684;48.342;10.096;2023-02-17T11:17:17;10.47;;;4.00;;
1380;SDS011;684;48.342;10.096;2023-02-17T11:19:58;10.40;;;3.50;;
1380;SDS011;684;48.342;10.096;2023-02-17T11:22:32;9.70;;;3.63;;
1380;SDS011;684;48.342;10.096;2023-02-17T11:25:03;7.50;;;3.23;;
1380;SDS011;684;48.342;10.096;2023-02-17T11:30:08;9.03;;;4.10;;
1380;SDS011;684;48.342;10.096;2023-02-17T11:32:40;8.37;;;3.50;;
1380;SDS011;684;48.342;10.096;2023-02-17T11:35:16;6.07;;;2.93;;
1380;SDS011;684;48.342;10.096;2023-02-17T11:37:48;7.27;;;3.50;;
1380;SDS011;684;48.342;10.096;2023-02-17T11:40:21;5.80;;;3.23;;
1380;SDS011;684;48.342;10.096;2023-02-17T11:42:54;7.83;;;3.80;;
1380;SDS011;684;48.342;10.096;2023-02-17T11:45:21;8.70;;;3.40;;
1380;SDS011;684;48.342;10.096;2023-02-17T11:47:52;7.00;;;3.47;;
1380;SDS011;684;48.342;10.096;2023-02-17T11:50:31;7.30;;;3.60;;
1380;SDS011;684;48.342;10.096;2023-02-17T11:53:14;10.80;;;3.57;;
1380;SDS011;684;48.342;10.096;2023-02-17T11:55:56;7.90;;;3.10;;
1380;SDS011;684;48.342;10.096;2023-02-17T11:58:35;7.07;;;3.20;;
1380;SDS011;684;48.342;10.096;2023-02-17T12:01:16;7.80;;;3.97;;
1380;SDS011;684;48.342;10.096;2023-02-17T12:04:02;6.83;;;2.90;;
1380;SDS011;684;48.342;10.096;2023-02-17T12:06:43;7.03;;;2.90;;
1380;SDS011;684;48.342;10.096;2023-02-17T12:09:19;8.93;;;3.50;;
1380;SDS011;684;48.342;10.096;2023-02-17T12:11:55;9.37;;;3.43;;
1380;SDS011;684;48.342;10.096;2023-02-17T12:14:39;7.50;;;3.27;;
1380;SDS011;684;48.342;10.096;2023-02-17T12:17:21;7.73;;;3.10;;
1380;SDS011;684;48.342;10.096;2023-02-17T12:19:56;9.20;;;3.37;;
1380;SDS011;684;48.342;10.096;2023-02-17T12:22:34;7.20;;;3.10;;
1380;SDS011;684;48.342;10.096;2023-02-17T12:28:03;8.40;;;3.40;;
1380;SDS011;684;48.342;10.096;2023-02-17T12:30:43;7.73;;;3.40;;
1380;SDS011;684;48.342;10.096;2023-02-17T12:33:25;10.57;;;3.70;;
1380;SDS011;684;48.342;10.096;2023-02-17T12:36:02;6.47;;;3.57;;
1380;SDS011;684;48.342;10.096;2023-02-17T12:38:33;8.37;;;4.30;;
1380;SDS011;684;48.342;10.096;2023-02-17T12:41:05;7.60;;;4.53;;
1380;SDS011;684;48.342;10.096;2023-02-17T12:43:37;7.40;;;3.50;;
1380;SDS011;684;48.342;10.096;2023-02-17T12:46:08;9.70;;;3.60;;
1380;SDS011;684;48.342;10.096;2023-02-17T12:48:37;7.03;;;3.57;;
1380;SDS011;684;48.342;10.096;2023-02-17T12:51:09;7.53;;;3.50;;
1380;SDS011;684;48.342;10.096;2023-02-17T12:53:41;11.00;;;4.27;;
1380;SDS011;684;48.342;10.096;2023-02-17T12:56:28;7.63;;;3.73;;
1380;SDS011;684;48.342;10.096;2023-02-17T12:59:10;8.43;;;4.17;;
1380;SDS011;684;48.342;10.096;2023-02-17T13:01:46;8.33;;;3.70;;
1380;SDS011;684;48.342;10.096;2023-02-17T13:04:16;8.00;;;4.57;;
1380;SDS011;684;48.342;10.096;2023-02-17T13:06:45;9.40;;;3.73;;
1380;SDS011;684;48.342;10.096;2023-02-17T13:09:16;9.33;;;4.00;;
1380;SDS011;684;48.342;10.096;2023-02-17T13:11:50;8.10;;;4.00;;
1380;SDS011;684;48.342;10.096;2023-02-17T13:14:25;11.87;;;4.63;;
1380;SDS011;684;48.342;10.096;2023-02-17T13:16:53;8.60;;;3.77;;
1380;SDS011;684;48.342;10.096;2023-02-17T13:19:27;11.47;;;3.90;;
1380;SDS011;684;48.342;10.096;2023-02-17T13:21:56;7.37;;;4.00;;
1380;SDS011;684;48.342;10.096;2023-02-17T13:24:30;7.70;;;4.07;;
1380;SDS011;684;48.342;10.096;2023-02-17T13:27:08;11.70;;;3.67;;
1380;SDS011;684;48.342;10.096;2023-02-17T13:29:37;7.40;;;3.80;;
1380;SDS011;684;48.342;10.096;2023-02-17T13:32:05;7.37;;;3.73;;
1380;SDS011;684;48.342;10.096;2023-02-17T13:34:36;7.63;;;3.50;;
1380;SDS011;684;48.342;10.096;2023-02-17T13:37:22;8.77;;;4.37;;
1380;SDS011;684;48.342;10.096;2023-02-17T13:39:52;8.20;;;3.93;;
1380;SDS011;684;48.342;10.096;2023-02-17T13:42:35;6.40;;;2.97;;
1380;SDS011;684;48.342;10.096;2023-02-17T13:45:11;9.50;;;4.00;;
1380;SDS011;684;48.342;10.096;2023-02-17T13:47:41;11.93;;;5.20;;
1380;SDS011;684;48.342;10.096;2023-02-17T13:50:24;6.67;;;3.00;;
1380;SDS011;684;48.342;10.096;2023-02-17T13:52:53;6.47;;;3.30;;
1380;SDS011;684;48.342;10.096;2023-02-17T13:55:20;7.97;;;3.23;;
1380;SDS011;684;48.342;10.096;2023-02-17T13:57:50;6.17;;;3.03;;
1380;SDS011;684;48.342;10.096;2023-02-17T14:00:22;8.83;;;3.37;;
1380;SDS011;684;48.342;10.096;2023-02-17T14:02:51;6.20;;;2.90;;
1380;SDS011;684;48.342;10.096;2023-02-17T14:05:20;7.93;;;3.73;;
1380;SDS011;684;48.342;10.096;2023-02-17T14:07:51;5.37;;;2.60;;
1380;SDS011;684;48.342;10.096;2023-02-17T14:10:23;7.60;;;3.20;;
1380;SDS011;684;48.342;10.096;2023-02-17T14:12:51;9.87;;;3.47;;
1380;SDS011;684;48.342;10.096;2023-02-17T14:15:21;7.57;;;3.90;;
1380;SDS011;684;48.342;10.096;2023-02-17T14:17:50;7.97;;;3.10;;
1380;SDS011;684;48.342;10.096;2023-02-17T14:20:28;10.67;;;3.77;;
1380;SDS011;684;48.342;10.096;2023-02-17T14:23:00;9.17;;;3.80;;
1380;SDS011;684;48.342;10.096;2023-02-17T14:25:29;6.73;;;3.03;;
1380;SDS011;684;48.342;10.096;2023-02-17T14:27:58;6.33;;;3.50;;
1380;SDS011;684;48.342;10.096;2023-02-17T14:30:29;6.33;;;3.37;;
1380;SDS011;684;48.342;10.096;2023-02-17T14:33:04;7.47;;;3.93;;
1380;SDS011;684;48.342;10.096;2023-02-17T14:35:33;9.30;;;3.10;;
1380;SDS011;684;48.342;10.096;2023-02-17T14:38:07;7.27;;;3.00;;
1380;SDS011;684;48.342;10.096;2023-02-17T14:40:35;7.50;;;2.80;;
1380;SDS011;684;48.342;10.096;2023-02-17T14:43:02;5.80;;;2.70;;
1380;SDS011;684;48.342;10.096;2023-02-17T14:45:30;11.70;;;3.10;;
1380;SDS011;684;48.342;10.096;2023-02-17T14:47:56;9.70;;;3.33;;
1380;SDS011;684;48.342;10.096;2023-02-17T14:50:23;5.93;;;2.60;;
1380;SDS011;684;48.342;10.096;2023-02-17T14:52:50;7.30;;;3.07;;
1380;SDS011;684;48.342;10.096;2023-02-17T14:55:20;6.47;;;2.87;;
1380;SDS011;684;48.342;10.096;2023-02-17T14:57:56;9.33;;;3.50;;
1380;SDS011;684;48.342;10.096;2023-02-17T15:00:23;7.43;;;3.50;;
1380;SDS011;684;48.342;10.096;2023-02-17T15:02:51;7.73;;;3.13;;
1380;SDS011;684;48.342;10.096;2023-02-17T15:05:18;7.90;;;3.70;;
1380;SDS011;684;48.342;10.096;2023-02-17T15:07:45;6.90;;;3.27;;
1380;SDS011;684;48.342;10.096;2023-02-17T15:10:13;7.43;;;3.13;;
1380;SDS011;684;48.342;10.096;2023-02-17T15:12:44;10.97;;;3.73;;
1380;SDS011;684;48.342;10.096;2023-02-17T15:15:12;5.93;;;3.00;;
1380;SDS011;684;48.342;10.096;2023-02-17T15:17:40;7.63;;;3.47;;
1380;SDS011;684;48.342;10.096;2023-02-17T15:20:09;9.13;;;4.00;;
1380;SDS011;684;48.342;10.096;2023-02-17T15:22:36;8.37;;;3.97;;
1380;SDS011;684;48.342;10.096;2023-02-17T15:25:09;8.40;;;4.27;;
1380;SDS011;684;48.342;10.096;2023-02-17T15:27:39;9.63;;;4.10;;